Chelsea Heart and Sole

back to results

May. 31, 1998

Chelsea Heart and Sole
CHELSEA, MICHIGAN


************ MALE OVERALL WINNER ************
PLACE NAME TOWN AGE GUNTIME NETTIME PACE
===== ====================== ================= === ======= ======= =====
1 Ian Forsyth Ann Arbor 26 30:24 30:24 4:54

************ FEMALE OVERALL WINNER ************
PLACE NAME TOWN AGE GUNTIME NETTIME PACE
===== ====================== ================= === ======= ======= =====
1 Jenni Holsman Haslett 30 40:01 40:01 6:27

MALE AGE GROUP: 1 - 10
PLACE NAME TOWN AGE GUNTIME NETTIME PACE
===== ====================== ================= === ======= ======= =====

FEMALE AGE GROUP: 1 - 10
PLACE NAME TOWN AGE GUNTIME NETTIME PACE
===== ====================== ================= === ======= ======= =====

MALE AGE GROUP: 1 - 14
PLACE NAME TOWN AGE GUNTIME NETTIME PACE
===== ====================== ================= === ======= ======= =====

FEMALE AGE GROUP: 1 - 14
PLACE NAME TOWN AGE GUNTIME NETTIME PACE
===== ====================== ================= === ======= ======= =====

MALE AGE GROUP: 15 - 19
PLACE NAME TOWN AGE GUNTIME NETTIME PACE
===== ====================== ================= === ======= ======= =====
1 Michael T Smith Midland 17 41:11 41:07 6:38

FEMALE AGE GROUP: 15 - 19
PLACE NAME TOWN AGE GUNTIME NETTIME PACE
===== ====================== ================= === ======= ======= =====
1 Leah Smith Pinckney 19 47:31 47:25 7:38
2 Jenny Beaudoin Pinckney 18 49:45 49:39 8:00
3 Helen Putnam Jackson 18 49:45 49:41 8:00

MALE AGE GROUP: 20 - 24
PLACE NAME TOWN AGE GUNTIME NETTIME PACE
===== ====================== ================= === ======= ======= =====
1 Joe Moto Kalamazoo 23 34:30 34:30 5:34
2 Mike Smetka Monroe 20 36:20 36:13 5:50
3 Jason Goins Monroe 24 47:34 47:16 7:37

FEMALE AGE GROUP: 20 - 24
PLACE NAME TOWN AGE GUNTIME NETTIME PACE
===== ====================== ================= === ======= ======= =====
1 Laura Morrison Ann Arbor 24 54:32 54:19 8:45

MALE AGE GROUP: 25 - 29
PLACE NAME TOWN AGE GUNTIME NETTIME PACE
===== ====================== ================= === ======= ======= =====
1 Thomas Preiss Whitmore Lake 29 33:35 33:35 5:25
2 Marvin Nieman Toledo 28 39:03 39:00 6:17
3 Brad Dyke Ann Arbor 29 39:21 39:18 6:20
4 Phil Huyck Ann Arbor 29 44:53 44:50 7:13
5 Michael Cook Belleville 28 45:27 45:24 7:19
6 Joe Watson Tecumseh 29 47:10 47:02 7:35
7 Matthew Steinhauer Ann Arbor 29 47:06 47:03 7:35
8 Scott Miller Ypsilant 28 54:24 54:10 8:44

FEMALE AGE GROUP: 25 - 29
PLACE NAME TOWN AGE GUNTIME NETTIME PACE
===== ====================== ================= === ======= ======= =====
1 Sharlene Day Ann Arbor 29 43:08 43:06 6:57
2 Angela Funke Ann Arbor 28 43:52 43:47 7:03
3 Mona Ezzat Ann Arbor 27 47:14 47:05 7:35
4 Shannon Nelsen Royal Oak 28 53:30 53:21 8:36
5 Sarah Benz Saline 25 59:54 59:42 9:37
6 Jennifer Mortin Chelsea 29 1:00:33 1:00:27 9:44
7 Amy Vantol Lansing 26 1:04:51 1:04:36 10:24

MALE AGE GROUP: 30 - 34
PLACE NAME TOWN AGE GUNTIME NETTIME PACE
===== ====================== ================= === ======= ======= =====
1 John Buursma Byron Center 34 36:21 36:19 5:51
2 Mark Meusel Ann Arbor 31 36:52 36:48 5:56
3 Thomas Eberts Saline 33 37:52 37:49 6:06
4 John Fischer Canton 33 42:32 42:28 6:51
5 Brian Colesa Chelsea 31 43:09 42:51 6:54
6 John McPhall Ypsilant 31 43:53 43:49 7:04
7 Dan Chun Ann Arbor 33 43:57 43:54 7:04
8 Chris Etheridge Ypsilant 31 44:53 44:51 7:14
9 Martin Steinhauer Chelsea 32 47:06 47:03 7:35
10 Chuck Marshall Chelsea 34 48:33 48:20 7:47
11 Doug Steward Ann Arbor 34 48:30 48:21 7:47
12 Robert Harper Canton 33 55:55 55:36 8:57
13 Thomas Streicher Northville 33 1:07:38 1:07:29 10:52

FEMALE AGE GROUP: 30 - 34
PLACE NAME TOWN AGE GUNTIME NETTIME PACE
===== ====================== ================= === ======= ======= =====
1 Leslie Rude Belleville 31 44:21 44:04 7:06
2 Darla Brown Lansing 34 46:53 46:46 7:32
3 Anne Wright Troy 31 53:30 53:21 8:36

MALE AGE GROUP: 35 - 39
PLACE NAME TOWN AGE GUNTIME NETTIME PACE
===== ====================== ================= === ======= ======= =====
1 Mark Middaugh Ypsilant 36 38:12 38:10 6:09
2 Eric Bilsky Ann Arbor 35 41:15 41:13 6:39
3 Mike Whitworth Jackson 37 41:30 41:26 6:41
4 Wallace Cain Grass Lake 39 42:59 42:49 6:54
5 Dave Fisher Ann Arbor 39 45:52 45:47 7:23
6 Dick Bradburn Chelsea 39 50:37 50:25 8:07
7 Brian Braun Grass Lake 39 51:11 51:07 8:14
8 Timothy Griffin Dundee 36 51:34 51:24 8:17
9 Ted Klemm Tecumseh 36 52:34 52:28 8:27

FEMALE AGE GROUP: 35 - 39
PLACE NAME TOWN AGE GUNTIME NETTIME PACE
===== ====================== ================= === ======= ======= =====
1 Janice Wiseman Ypsilant 39 47:14 47:07 7:35
2 Judith Gentz Chelsea 39 53:44 53:26 8:37
3 Kila Kindig Ypsilant 37 53:45 53:33 8:38
4 Marilyn Joy Birmingham 36 54:33 54:19 8:45
5 Christine Blumhardt Adrian 38 1:02:52 1:02:37 10:05
6 Joan Roggeybuck Tecumseh 35 1:04:50 1:04:36 10:24

MALE AGE GROUP: 40 - 44
PLACE NAME TOWN AGE GUNTIME NETTIME PACE
===== ====================== ================= === ======= ======= =====
1 Rick Burcham Montpelier 44 35:27 35:25 5:42
2 John McCabe Lansing 42 36:31 36:29 5:53
3 Jeff Massey Portland 40 36:47 36:45 5:55
4 Tom Rasdale Dewitt 44 37:38 37:36 6:04
5 James Scholl Saline 44 38:56 38:54 6:16
6 Gary Duke Linden 40 39:25 39:23 6:21
7 Rique Campa Perry 41 39:40 39:38 6:23
8 Michael L Smith Midland 41 41:36 41:32 6:42
9 Jerry Fowle Jackson 43 41:51 41:48 6:44
10 William Noble Ann Arbor 43 42:35 42:14 6:48
11 Mike Herrel Novi 42 44:13 44:08 7:07
12 Dennis Watson Ann Arbor 44 45:38 45:31 7:20
13 Ken Watkins Ann Arbor 40 47:34 47:21 7:38
14 Alan Fark Chelsea 42 48:12 48:01 7:44
15 John Schafer Chelsea 41 51:05 50:57 8:12
16 Paul Olejniczak Chelsea 40 53:51 53:34 8:38

FEMALE AGE GROUP: 40 - 44
PLACE NAME TOWN AGE GUNTIME NETTIME PACE
===== ====================== ================= === ======= ======= =====
1 Mary Reynolds Lennon 43 48:37 48:24 7:48
2 Nancy Broadbridge Birmingham 44 49:24 49:21 7:57
3 Cynthia Hencsie Troy 43 52:17 52:06 8:24
4 Laurel Copeland Ann Arbor 41 1:02:24 1:02:11 10:01

MALE AGE GROUP: 45 - 49
PLACE NAME TOWN AGE GUNTIME NETTIME PACE
===== ====================== ================= === ======= ======= =====
1 Henry Bazydio Chelsea 46 37:37 37:36 6:04
2 Anthony Lopetrone Birmingham 47 39:25 39:23 6:21
3 Bill Johnson Williamston 47 39:41 39:38 6:23
4 Tom De Vos Clarkston 48 39:54 39:52 6:26
5 Ray Pilon Belleville 45 41:06 41:02 6:37
6 Roger Katakowski Chelsea 45 41:33 41:18 6:39
7 Larry Sweet Manchester 48 41:36 41:24 6:40
8 John Gourlay Chelsea 49 42:14 42:14 6:48
9 Greg Cook Ann Arbor 49 42:55 42:54 6:55
10 Charles Schultz Brooklyn 49 45:36 45:26 7:19
11 Steve Beckman Ann Arbor 47 47:49 47:35 7:40
12 John McMunn Temperance 48 49:40 49:29 7:58
13 Thomas Gala Saline 45 50:39 50:37 8:09
14 Todd Beel Ann Arbor 45 53:50 53:32 8:38
15 Myron Levine Albion 49 58:56 58:42 9:27
16 Robert Caldwell Ypsilant 45 1:11:05 1:10:49 11:24
17 Jim Balmer Ann Arbor 45 1:16:53 1:16:36 12:20

FEMALE AGE GROUP: 45 - 49
PLACE NAME TOWN AGE GUNTIME NETTIME PACE
===== ====================== ================= === ======= ======= =====
1 Nancy Majdyka 47 41:32 41:17 6:39
2 Mary Ann Pettit Marshall 46 52:30 52:25 8:27
3 Marifaith King Stockbridge 46 55:33 55:28 8:56

MALE AGE GROUP: 50 - 54
PLACE NAME TOWN AGE GUNTIME NETTIME PACE
===== ====================== ================= === ======= ======= =====
1 Claude Spencer Clark Lake 51 38:59 38:55 6:16
2 John E Fornaess Ann Arbor 52 42:43 42:40 6:52
3 David Blough Saline 50 43:00 42:58 6:55
4 Jim Van Inwagen Ypsilant 52 45:50 45:44 7:22
5 Bill Ling Jonesville 51 48:59 48:51 7:52
6 Clair Risner Stockbridge 53 49:38 49:32 7:59
7 Robert Spaly Ann Arbor 54 53:07 52:57 8:32
8 Marlin Short Wauseion 50 56:50 56:36 9:07

FEMALE AGE GROUP: 50 - 54
PLACE NAME TOWN AGE GUNTIME NETTIME PACE
===== ====================== ================= === ======= ======= =====
1 Ana Rodriguez Toleddo 52 49:00 49:00 7:54
2 Jennie Meyer-McCaffert Ypsilant 52 1:03:30 1:03:15 10:11
3 Marilyn Royle Grass Lake 50 1:07:31 1:07:23 10:51

MALE AGE GROUP: 55 - 59
PLACE NAME TOWN AGE GUNTIME NETTIME PACE
===== ====================== ================= === ======= ======= =====
1 Bill Keller Lansing 57 40:47 40:42 6:34
2 Jerome Tomc Toledo 55 45:44 45:40 7:22
3 Bill Johnston Ann Arbor 55 45:51 45:42 7:22
4 Edward Nelson Ann Arbor 56 47:25 47:17 7:37
5 Richard Vile Jr Dexter 55 48:45 48:36 7:50
6 Walter Pascal Jackson 55 49:07 49:03 7:54
7 David Abbeg Ypsilant 57 51:55 51:46 8:20
8 Cyril Steinhauser La Salle 56 54:35 54:19 8:45
9 Jeffrey Laufer Ann Arbor 55 55:38 55:29 8:56
10 Hideo Soneoka Ann Arbor 55 58:14 58:03 9:21

FEMALE AGE GROUP: 55 - 59
PLACE NAME TOWN AGE GUNTIME NETTIME PACE
===== ====================== ================= === ======= ======= =====

MALE AGE GROUP: 60 - 64
PLACE NAME TOWN AGE GUNTIME NETTIME PACE
===== ====================== ================= === ======= ======= =====
1 Joseph Bianco Ypsilant 60 46:36 46:31 7:30
2 Dennis Johnston Ann Arbor 63 59:04 58:55 9:29

FEMALE AGE GROUP: 60 - 64
PLACE NAME TOWN AGE GUNTIME NETTIME PACE
===== ====================== ================= === ======= ======= =====

MALE AGE GROUP: 65 - 69
PLACE NAME TOWN AGE GUNTIME NETTIME PACE
===== ====================== ================= === ======= ======= =====
1 Howard Rittenger Alma 66 49:22 49:17 7:56

FEMALE AGE GROUP: 65 - 69
PLACE NAME TOWN AGE GUNTIME NETTIME PACE
===== ====================== ================= === ======= ======= =====

MALE AGE GROUP: 70 - 89
PLACE NAME TOWN AGE GUNTIME NETTIME PACE
===== ====================== ================= === ======= ======= =====
1 Bob Foster Ann Arbor 78 1:11:21 1:11:03 11:27




************ MALE OVERALL WINNER ************
PLACE NAME TOWN AGE GUNTIME NETTIME PACE
===== ====================== ================= === ======= ======= =====
1 Patrick Lencioni Ann Arbor 32 15:38 15:38 5:02

************ FEMALE OVERALL WINNER ************
PLACE NAME TOWN AGE GUNTIME NETTIME PACE
===== ====================== ================= === ======= ======= =====
1 Janet Boldrey Lansing 24 17:38 17:37 5:41

MALE AGE GROUP: 1 - 10
PLACE NAME TOWN GUNTIME NETTIME PACE
===== ====================== ================= === ======= ======= =====
1 Alex Stewart Gregory 10 23:29 23:25 7:33
2 Jared Ruark Canton 9 24:18 24:11 7:47
3 Bret Marsh Dexter 7 29:29 29:17 9:26
4 Allen Eyler Ann Arbor 10 30:30 30:14 9:44

FEMALE AGE GROUP: 1 - 10
PLACE NAME TOWN GUNTIME NETTIME PACE
===== ====================== ================= === ======= ======= =====
1 Eleanor Stewart Gregory 8 30:52 30:48 9:55
2 Rachel Stone Chelsea 10 31:27 31:22 10:06

MALE AGE GROUP: 11 - 14
PLACE NAME TOWN GUNTIME NETTIME PACE
===== ====================== ================= === ======= ======= =====
1 Justin Noble Brooklyn 13 18:37 18:35 5:59
2 Jared Daniel Chelsea 14 19:22 19:15 6:12
3 Kyle Brown Chelsea 13 19:35 19:35 6:19
4 Mike Kattcha Chelsea 14 19:53 19:46 6:22
5 Nick Wilkinson Ann Arbor 13 20:20 20:20 6:33
6 Eric Feldt Hamburg 14 20:35 20:35 6:38
7 Neil Atzinger Ann Arbor 12 21:43 21:35 6:57
8 Carl Legg Adrian 14 21:40 21:36 6:57
9 Dan Smith Midland 13 22:32 22:28 7:14
10 Kenneth Davis Chelsea 11 23:13 23:13 7:29
11 Jeffrey Marsh Dexter 12 24:31 24:28 7:53
12 Yuri Zwick Fenton 11 25:53 25:52 8:20
13 David Stone Chelsea 14 26:28 26:22 8:30
14 Kellen Duke Linden 11 26:38 26:35 8:34
15 Michael Caldwell Ypsilant 11 28:48 28:48 9:17
16 Ben Balmer Ann Arbor 11 30:55 30:54 9:57

FEMALE AGE GROUP: 11 - 14
PLACE NAME TOWN GUNTIME NETTIME PACE
===== ====================== ================= === ======= ======= =====
1 Kalli Williams Ann Arbor 13 20:50 20:46 6:42

MALE AGE GROUP: 15 - 19
PLACE NAME TOWN GUNTIME NETTIME PACE
===== ====================== ================= === ======= ======= =====
1 Nate Spencer Clark Lake 18 16:40 16:40 5:22
2 Jesse Kirvan Saline 16 18:58 18:56 6:06
3 Jon White Brooklyn 17 19:40 19:37 6:19
4 Kyle Marsh Dexter 15 21:42 21:39 6:59

FEMALE AGE GROUP: 15 - 19
PLACE NAME TOWN GUNTIME NETTIME PACE
===== ====================== ================= === ======= ======= =====
1 Elizabeth Fernandez Bloomfield Hills 18 22:04 21:58 7:05
2 Sarah Smith Midland 16 25:34 25:30 8:13

MALE AGE GROUP: 20 - 24
PLACE NAME TOWN GUNTIME NETTIME PACE
===== ====================== ================= === ======= ======= =====
1 Matthew West Ottawa Lake 23 17:09 17:07 5:31
2 Cory Brown Chelsea 22 19:34 19:33 6:18
3 Andy Wetzel Chelsea 22 21:29 21:27 6:55
4 Steve Fernandez Novi 23 24:26 24:20 7:50
5 Ken Gourlay Chelsea 20 25:50 25:39 8:16

FEMALE AGE GROUP: 20 - 24
PLACE NAME TOWN GUNTIME NETTIME PACE
===== ====================== ================= === ======= ======= =====
1 Hilary Green Brighton 21 21:35 21:29 6:55
2 Kristi Van Wieren Ann Arbor 21 24:43 24:37 7:56
3 Ann Irene Dulecki New Boston 22 24:59 24:44 7:58
4 Erica Fielder Brooklyn 21 27:13 26:59 8:42
5 Christy Boyle Ypsilanti 23 30:22 30:01 9:40
6 Saira Naim Ann Arbor 22 31:57 31:28 10:08

MALE AGE GROUP: 25 - 29
PLACE NAME TOWN GUNTIME NETTIME PACE
===== ====================== ================= === ======= ======= =====
1 Mike Holik Grass Lake 27 15:54 15:54 5:07
2 Scott Westover Northville 25 17:01 16:59 5:28
3 Scott Baker Ann Arbor 25 17:53 17:51 5:45
4 Richard Truxall Dexter 28 20:28 20:24 6:34
5 George O'Neal Ann Arbor 28 22:05 21:58 7:05
6 Tomas Larssan Ann Arbor 27 23:34 23:26 7:33
7 Raju Datla Ann Arbor 27 24:04 23:56 7:43
8 Kris Kegerreis Ann Arbor 28 25:50 25:39 8:16
9 Brian Finch Lansing 27 25:47 25:47 8:19
10 Mark Spitz-Nogel New York 27 26:24 26:07 8:25
11 Matthew Saval Canton 25 44:59 27:59 9:01

FEMALE AGE GROUP: 25 - 29
PLACE NAME TOWN GUNTIME NETTIME PACE
===== ====================== ================= === ======= ======= =====
1 Jessica Forsyth Ann Arbor 25 18:05 18:03 5:49
2 Nikki Norris-Smith Holt 29 19:54 19:52 6:24
3 Paula Webb Parma 29 23:35 23:26 7:33
4 Bonnie Gretzner Jackson 28 24:03 23:55 7:42
5 Heather Spray Ann Arbor 29 24:19 24:10 7:47
6 Debby Gardner Clyde Twp 26 26:16 26:10 8:26
7 Lora Charles Ann Arbor 26 26:35 26:29 8:32
8 Deborah Haan Ypsilanti 29 27:31 27:25 8:50
9 Claudia Chun Ann Arbor 28 28:07 27:58 9:01
10 Rachael Prebyla Ann Arbor 29 28:25 28:03 9:02

MALE AGE GROUP: 30 - 34
PLACE NAME TOWN GUNTIME NETTIME PACE
===== ====================== ================= === ======= ======= =====
1 Johnny Starlyte Grass Lake 34 17:05 17:04 5:30
2 Adam Baldridge Grand Blanc 33 17:16 17:16 5:34
3 Todd Dickinson Pinckney 30 18:00 17:58 5:47
4 Douglas Crang Ann Arbor 33 19:13 19:10 6:11
5 Rob Benedict Ann Arbor 33 20:21 20:02 6:27
6 Tom Colson Hudson 34 20:53 20:49 6:42
7 Eric Clarke Adrian 31 21:31 21:25 6:54
8 Marcus Merillat Ypsilant 34 22:04 22:00 7:05
9 Daniel Gretzner Jackson 31 25:01 24:52 8:01
10 Clifford Zielinski Jackson 32 30:22 30:02 9:41
11 Joe Saval Canton 34 40:42 32:07 10:21

FEMALE AGE GROUP: 30 - 34
PLACE NAME TOWN GUNTIME NETTIME PACE
===== ====================== ================= === ======= ======= =====
1 Ann Boyd Ann Arbor 34 18:13 18:12 5:52
2 Amy Wolfgang Albion 30 19:09 19:07 6:10
3 Amy Ullrich Ann Arbor 31 24:04 23:55 7:42
4 Alice Morrison Dexter 31 24:30 24:25 7:52
5 Jodie Brown Jackson 32 27:05 26:50 8:39
6 Jeanne Williams Stockbridge 32 26:57 26:52 8:39
7 Renee Anders Belleville 31 28:07 27:47 8:57
8 Kathy McMillan Northville 32 44:59 27:59 9:01
9 Kim Para Ann Arbor 31 29:35 29:27 9:29
10 Margaret Pigott Pinckney 32 30:03 29:42 9:34
11 Cindy Calderon Ann Arbor 31 32:30 32:08 10:21
12 Tammy Harper Canton 33 34:11 33:52 10:55
13 Jill Phillips Munith 34 35:16 35:03 11:17
14 Megan Seleska Ypsilant 30 35:28 35:17 11:22

MALE AGE GROUP: 35 - 39
PLACE NAME TOWN GUNTIME NETTIME PACE
===== ====================== ================= === ======= ======= =====
1 Joseph Daunt Lansing 37 18:21 18:18 5:54
2 Martin Clarke Ann Arbor 38 19:03 19:00 6:07
3 John Larin Ann Arbor 38 19:05 19:04 6:09
4 Jim Wood Jackson 37 19:24 19:23 6:15
5 Bob Yopko Chelsea 38 20:49 20:44 6:41
6 Jim Baldwin Ann Arbor 35 20:54 20:47 6:42
7 Martin Buckingham Ann Arbor 39 21:33 21:24 6:54
8 Tom Litzler Ann Arbor 39 23:42 23:38 7:37
9 Mark McDougall Chelsea 37 24:20 24:08 7:46
10 Jesse Lewit Ann Arbor 39 24:25 24:13 7:48
11 Tom Houle Chelsea 36 24:25 24:15 7:49
12 Randy Nitz Brighton 35 24:55 24:44 7:58
13 Kevin Osgood Ann Arbor 38 26:29 26:15 8:28
14 Richard Eakin Ann Arbor 37 29:05 28:56 9:19
15 Michael Ann Enders Middleville 35 29:49 29:33 9:31

FEMALE AGE GROUP: 35 - 39
PLACE NAME TOWN GUNTIME NETTIME PACE
===== ====================== ================= === ======= ======= =====
1 Dee Dee Sahakian Manchester 38 21:22 21:18 6:52
2 Carrie Schupbach Jackson 37 21:32 21:29 6:55
3 Louise Zruk Livonia 35 22:44 22:37 7:17
4 Kimberly Barrett Ann Arbor 38 23:54 23:43 7:38
5 Vicki Catlina Chelsea 36 25:06 24:58 8:03
6 Tracy Heydlauff Chelsea 35 25:25 25:18 8:09
7 Jane Laudon Howell 36 25:42 25:33 8:14
8 Christi Becker Chelsea 37 26:00 25:46 8:18
9 Katrina Stewart Gregory 39 25:59 25:55 8:21
10 Maribeth Hammer Chelsea 36 27:37 27:18 8:48
11 Sally De Vol Chelsea 37 28:36 28:18 9:07
12 Laura Battle Gregory 37 29:02 28:49 9:17
13 Colleen Booms Ann Arbor 36 29:05 28:56 9:19
14 Kathy Boyer Jackson 35 29:22 29:11 9:24
15 Pamela Van Buren Chelsea 38 29:37 29:21 9:27
16 Annette Weeks Chelsea 36 30:00 29:43 9:34
17 Polly Bradburn Chelsea 39 32:15 32:01 10:19
18 Marilyn Gileczek Gregory 39 33:01 32:56 10:37

MALE AGE GROUP: 40 - 44
PLACE NAME TOWN GUNTIME NETTIME PACE
===== ====================== ================= === ======= ======= =====
1 Joe Ofsansky Hillsdale 43 17:19 17:18 5:35
2 Thomas Pohl Saline 40 18:14 18:13 5:52
3 Dave Parham Chelsea 44 20:00 19:59 6:26
4 Floyd Walters South Lyon 42 20:07 20:02 6:27
5 Tom Kirvan Saline 44 21:48 21:44 7:00
6 Steve McLean Williamston 42 22:19 22:13 7:10
7 Larry Dault Grass Lake 41 23:13 22:58 7:24
8 Mike Romet Ann Arbor 42 23:02 23:00 7:25
9 John Blumhardt Adrian 44 24:13 24:02 7:45
10 Rick Chabot Dexter 41 24:44 24:33 7:55
11 Steve Taylor Pinckney 43 24:43 24:34 7:55
12 Don Ruark Canton 41 25:02 24:54 8:01
13 George Cameron Jackson 44 25:20 25:07 8:06
14 Dave Muccino Chelsea 41 27:10 27:02 8:43
15 Jay Marsh Dexter 41 29:29 29:17 9:26

FEMALE AGE GROUP: 40 - 44
PLACE NAME TOWN GUNTIME NETTIME PACE
===== ====================== ================= === ======= ======= =====
1 Corlis Irrer Ann Arbor 44 22:00 21:59 7:05
2 Kathryn Slish Ann Arbor 43 25:26 25:19 8:09
3 Juli Burke Ann Arbor 40 25:49 25:36 8:15
4 Arlene Seelbach Chelsea 43 26:51 26:34 8:34
5 Pat Chabot Dexter 41 28:11 28:00 9:01
6 Barbara Grant-Yopko Chelsea 44 29:01 28:47 9:16
7 Geraldine Peters Saline 42 31:03 30:56 9:58
8 Penny Olsen Gregory 42 31:52 31:33 10:10
9 Dotty Williams Saline 41 34:22 34:09 11:00
10 Helen McFarland Northville 40 34:29 34:21 11:04
11 Eva Vizzini Ypsilanti 40 35:34 35:23 11:24
12 Patricia Weazel Belleville 44 38:18 38:05 12:16

MALE AGE GROUP: 45 - 49
PLACE NAME TOWN GUNTIME NETTIME PACE
===== ====================== ================= === ======= ======= =====
1 Mike McGlynn Jackson 48 17:22 17:22 5:36
2 Jeff Patino Holt 46 18:55 18:53 6:05
3 Jesse Lothamer Okemos 47 18:54 18:54 6:05
4 Ron Olson Ann Arbor 49 19:15 19:14 6:12
5 Thomas Schwenk Ann Arbor 48 20:30 20:24 6:34
6 Bob Cranson Ann Arbor 48 20:45 20:43 6:40
7 Jack Levely Royal Oak 47 21:22 21:20 6:53
8 Rod Chivington Jackson 47 21:46 21:42 7:00
9 Randy Fielder Brooklyn 46 22:01 21:45 7:00
10 Jon Biggs Adrian 45 22:04 21:51 7:02
11 Ron Yonkoski Ann Arbor 49 23:33 23:25 7:33
12 Robert Barrett Ann Arbor 46 24:51 24:39 7:57
13 Archie King Stockbridge 45 24:58 24:54 8:01
14 Mike Beardslee Howell 45 29:13 28:56 9:19

FEMALE AGE GROUP: 45 - 49
PLACE NAME TOWN GUNTIME NETTIME PACE
===== ====================== ================= === ======= ======= =====
1 Bonnie Arlt Millersburg 46 22:17 22:12 7:09
2 Micky Howe Gregory 47 26:42 26:34 8:33
3 Jasmine Dudzik Saline 49 30:41 30:24 9:48
4 Susan Brazin Ann Arbor 48 31:01 30:42 9:54
5 Patricia Miller Ann Arbor 45 32:30 32:08 10:21
6 Michaela Kioski Grass Lake 47 32:51 32:31 10:28

MALE AGE GROUP: 50 - 54
PLACE NAME TOWN GUNTIME NETTIME PACE
===== ====================== ================= === ======= ======= =====
1 Rick Villa Saline 52 19:34 19:33 6:18
2 Clark Etterman Mason 52 24:18 24:12 7:48
3 Geoffrey Voght Ypsilant 52 25:43 25:33 8:14
4 Larry Stone Chelsea 50 27:29 27:24 8:50
5 Richard Steele Chelsea 52 28:08 27:47 8:57
6 Arny Stieber Grass Lake 53 28:08 27:51 8:58
7 Mike Michaelson Lansing 51 29:30 29:23 9:28
8 Robert Kegerreis Northville 54 33:43 33:23 10:45

FEMALE AGE GROUP: 50 - 54
PLACE NAME TOWN GUNTIME NETTIME PACE
===== ====================== ================= === ======= ======= =====
1 Carolin Dick Ann Arbor 50 20:33 20:31 6:37
2 Lauri Mendenhall Ann Arbor 50 21:42 21:39 6:59
3 Elana Gravina Lansing 54 28:37 28:24 9:09
4 Erlene Wnorowski Ann Arbor 53 28:58 28:51 9:18

MALE AGE GROUP: 55 - 59
PLACE NAME TOWN GUNTIME NETTIME PACE
===== ====================== ================= === ======= ======= =====
1 Bill Stewart Ann Arbor 55 19:02 19:01 6:08
2 Harlan Van Blaricum Dexter 57 21:14 21:12 6:50
3 David Schupbach Jackson 57 22:01 21:58 7:05
4 Jim Papsdorf Whitmore Lake 59 22:30 22:15 7:10
5 Gerald Roberts Chelsea 55 22:55 22:48 7:21
6 Paul Wood Leslie 58 27:09 26:59 8:42
7 Rodger Matz Jackson 55 27:33 27:27 8:51
8 Lynn Spitznagel Chelsea 58 31:17 31:00 9:59

FEMALE AGE GROUP: 55 - 59
PLACE NAME TOWN GUNTIME NETTIME PACE
===== ====================== ================= === ======= ======= =====
1 Rosemary Ling Jonesville 57 31:29 31:17 10:05

MALE AGE GROUP: 60 - 64
PLACE NAME TOWN GUNTIME NETTIME PACE
===== ====================== ================= === ======= ======= =====
1 Alvin Ravenscroft Willis 64 20:19 20:15 6:31
2 Del Sisler Livonia 62 25:09 25:06 8:05
3 Wally Dobler Lansing 64 28:03 27:46 8:57
4 Ronald Gill Pleaasnat Lake 61 28:33 28:17 9:07

FEMALE AGE GROUP: 60 - 64
PLACE NAME TOWN GUNTIME NETTIME PACE
===== ====================== ================= === ======= ======= =====

MALE AGE GROUP: 65 - 69
PLACE NAME TOWN GUNTIME NETTIME PACE
===== ====================== ================= === ======= ======= =====
1 Harrison Hensley Pinckney 65 27:55 27:32 8:52




************ MALE OVERALL WINNER ************
PLACE NAME TOWN AGE GUNTIME NETTIME PACE
===== ====================== ================= === ======= ======= =====
1 Charlie Cameron Jackson 15 10:20 10:20 5:10

************ FEMALE OVERALL WINNER ************
PLACE NAME TOWN AGE GUNTIME NETTIME PACE
===== ====================== ================= === ======= ======= =====
1 Jennifer Taylor Grass Lake 29 14:07 14:05 7:03

MALE AGE GROUP: 1 - 8
PLACE NAME TOWN AGE GUNTIME NETTIME PACE
===== ====================== ================= === ======= ======= =====
1 Brian Houle Chelsea 8 13:25 13:17 6:39
2 Michael Kozma Chelsea 7 16:30 16:29 8:15
3 Riley Feeney Chelsea 7 18:14 17:58 8:59
4 Drake Olejniczak Chelsea 6 18:28 18:10 9:05
5 Tate Feeney Chelsea 6 18:59 18:44 9:22
6 Jonathan Aderman Grass Lake 8 20:12 20:01 10:01

FEMALE AGE GROUP: 1 - 8
PLACE NAME TOWN AGE GUNTIME NETTIME PACE
===== ====================== ================= === ======= ======= =====
1 Leah Davis Chelsea 6 20:36 20:24 10:12
2 Larry Gunderson Whitmore Lake 8 21:05 20:55 10:28
3 Lindsay Skeans Munith 7 21:54 21:34 10:47

MALE AGE GROUP: 9 - 10
PLACE NAME TOWN AGE GUNTIME NETTIME PACE
===== ====================== ================= === ======= ======= =====
1 Alex Babbitt Chelsea 10 12:33 12:32 6:16
2 Timothy Romelhardt Dexter 10 12:41 12:41 6:21
3 Ken White Dexter 10 13:51 13:45 6:53
4 Austin Feeney Chelsea 9 18:07 17:52 8:56

FEMALE AGE GROUP: 9 - 10
PLACE NAME TOWN AGE GUNTIME NETTIME PACE
===== ====================== ================= === ======= ======= =====

MALE AGE GROUP: 11 - 12
PLACE NAME TOWN AGE GUNTIME NETTIME PACE
===== ====================== ================= === ======= ======= =====
1 Lex Williams Ann Arbor 11 12:09 12:06 6:03
2 Eric Lawrence Gregory 12 12:38 12:36 6:18
3 Michael Chabot Dexter 12 13:45 13:35 6:48
4 Dan De Wall Chelsea 12 15:16 15:15 7:38
5 John Erwin Chelsea 12 18:17 17:59 9:00

FEMALE AGE GROUP: 11 - 12
PLACE NAME TOWN AGE GUNTIME NETTIME PACE
===== ====================== ================= === ======= ======= =====
1 Genny Gourlay Chelsea 12 14:42 14:30 7:15
2 Ashley Houle Chelsea 12 14:48 14:38 7:19
3 Rebecca Reesman Chelsea 11 17:00 16:45 8:23
4 Jennifer Gunderson Whitmore Lake 12 17:27 17:16 8:38
5 Jane McFarland Horton 12 17:32 17:17 8:39
6 Jessica Tompkins Chelsea 12 19:17 19:12 9:36
7 Rachel Shears Chelsea 12 19:18 19:14 9:37

MALE AGE GROUP: 13 - 14
PLACE NAME TOWN AGE GUNTIME NETTIME PACE
===== ====================== ================= === ======= ======= =====
1 Chad Fortner Manchester 14 10:29 10:29 5:15
2 Aaron Trachet Jackson 14 11:41 11:37 5:49
3 Robbie Chelsea 13 12:45 12:40 6:20
4 Caleb Spence Chelsea 14 14:47 14:42 7:21

FEMALE AGE GROUP: 13 - 14
PLACE NAME TOWN AGE GUNTIME NETTIME PACE
===== ====================== ================= === ======= ======= =====
1 Adrian Davis Chelsea 13 22:28 22:28 11:14

MALE AGE GROUP: 15 - 17
PLACE NAME TOWN AGE GUNTIME NETTIME PACE
===== ====================== ================= === ======= ======= =====
1 Jacob Wilkinson Ann Arbor 15 11:42 11:42 5:51

FEMALE AGE GROUP: 15 - 17
PLACE NAME TOWN AGE GUNTIME NETTIME PACE
===== ====================== ================= === ======= ======= =====
1 Kristi Barner Chelsea 16 14:57 14:51 7:26
2 Rebecca Mariotti Horton 16 20:16 20:01 10:01
3 Carol Cameron Jackson 17 21:54 21:34 10:47

MALE AGE GROUP: 18 - 24
PLACE NAME TOWN AGE GUNTIME NETTIME PACE
===== ====================== ================= === ======= ======= =====
1 Tim Lawrence Gregory 18 12:39 12:36 6:18

FEMALE AGE GROUP: 18 - 24
PLACE NAME TOWN AGE GUNTIME NETTIME PACE
===== ====================== ================= === ======= ======= =====
1 Christine Shannon Michigan Center 22 17:01 16:46 8:23
2 Elizabeth Smith Ypsilant 22 31:19 31:00 15:30

MALE AGE GROUP: 25 - 29
PLACE NAME TOWN AGE GUNTIME NETTIME PACE
===== ====================== ================= === ======= ======= =====

FEMALE AGE GROUP: 25 - 29
PLACE NAME TOWN AGE GUNTIME NETTIME PACE
===== ====================== ================= === ======= ======= =====
1 Catharine O'Neal Ann Arbor 26 17:00 16:53 8:27
2 Chris Iley Jackson 27 18:15 18:11 9:06

MALE AGE GROUP: 30 - 39
PLACE NAME TOWN AGE GUNTIME NETTIME PACE
===== ====================== ================= === ======= ======= =====
1 Eric Nei Jackson 36 13:05 12:56 6:28
2 Terry Plesha Sparta 37 15:02 14:52 7:26
3 Joe McInnis Ann Arbor 38 18:11 18:05 9:03
4 Peter Feeney Chelsea 38 19:03 18:47 9:24
5 Todd Regis Chelsea 32 45:04 44:47 22:24

FEMALE AGE GROUP: 30 - 39
PLACE NAME TOWN AGE GUNTIME NETTIME PACE
===== ====================== ================= === ======= ======= =====
1 Ann Brogen Whitmore Lake 38 14:58 14:54 7:27
2 Sue Dickinson Pinckney 30 17:26 17:08 8:34
3 Patti Feeney Chelsea 35 18:14 17:59 9:00
4 Wanda Gunderson Whitmore Lake 39 21:06 20:55 10:28
5 Pamela Bunton Ypsilant 39 22:52 22:31 11:16

MALE AGE GROUP: 40 - 49
PLACE NAME TOWN AGE GUNTIME NETTIME PACE
===== ====================== ================= === ======= ======= =====
1 Bryan Noble Brooklyn 40 12:53 12:44 6:22
2 Duff Davis Chelsea 45 12:48 12:47 6:24
3 Mark Becker Chelsea 40 13:29 13:26 6:43
4 Allen White Dexter 47 13:58 13:51 6:56
5 Craig Oppenlander Detroit 48 14:07 14:04 7:02
6 Gary Haralee Detroit 42 14:10 14:05 7:03
7 Howard Spence Chelsea 45 15:20 15:15 7:38
8 Steve Gunderson Whitmore Lake 43 20:44 20:33 10:17

FEMALE AGE GROUP: 40 - 49
PLACE NAME TOWN AGE GUNTIME NETTIME PACE
===== ====================== ================= === ======= ======= =====
1 Kathie Gourlay Chelsea 49 15:08 14:42 7:21
2 Diane Spence Chelsea 43 16:36 16:30 8:15
3 Carol Coburn Royal Oak 40 18:46 18:34 9:17
4 Martha Reesman Chelsea 44 19:03 18:47 9:24
5 Rowena Atlee Chelsea 45 20:21 20:07 10:04
6 Nancy Davis Chelsea 43 20:36 20:24 10:12
7 Janette Hyde Chelsea 46 37:16 37:12 18:36

MALE AGE GROUP: 50 - 59
PLACE NAME TOWN AGE GUNTIME NETTIME PACE
===== ====================== ================= === ======= ======= =====
1 John Borener Jackson 58 15:10 14:58 7:29

FEMALE AGE GROUP: 50 - 59
PLACE NAME TOWN AGE GUNTIME NETTIME PACE
===== ====================== ================= === ======= ======= =====
1 Janice Kidd Chelsea 51 16:32 16:31 8:16
2 Mary Erwin Chelsea 50 18:19 18:01 9:01
3 Karen Cameron Jackson 50 22:53 22:32 11:16

MALE AGE GROUP: 60 - 69
PLACE NAME TOWN AGE GUNTIME NETTIME PACE
===== ====================== ================= === ======= ======= =====
1 Herb Seegert Plymouth 62 15:06 14:48 7:24




************ MALE OVERALL WINNER ************
PLACE NAME TOWN AGE time PACE
===== ====================== ================= === ======= =====
1 John L Pettit Marshall 46 20:07 10:04
2 Greg Davis-Kean Ann Arbor 30 21:20 10:40
3 Ross Fortner Manchester 10 22:16 11:08
4 Will Rooney Concord 44 22:47 11:24
5 Evan Phillips Chelsea 5 22:52 11:26
6 Gregory Mepyans Garden City 39 23:11 11:36
7 Kyle Braun Grass Lake 17 23:25 11:43
8 Gerald De Buysscher Belleville 50 23:29 11:45
9 Larry Wagner Brighton 36 24:44 12:22
10 Bill Kennedy Redford 47 24:46 12:23
11 Bud Myer Stockbridge 75 25:04 12:32
12 Brad Angelocci Chelsea 41 26:09 13:05
13 Jim Sahakian Manchester 49 26:20 13:10
14 James Sewell Manchester 39 26:50 13:25
15 Robert Benedict Chelsea 68 27:28 13:44
16 Gary Sanderson Grass Lake 42 28:25 14:13
17 Eryn Smith Ypsilant 23 28:39 14:20
18 John Kozma Chelsea 39 28:40 14:20
19 Cris McFarland Horton 44 29:23 14:42
20 David Pastor Chelsea 58 29:47 14:54
21 Bryan Van Heest Jackson 42 30:14 15:07
22 Dustin Patrick Stockbridge 6 30:30 15:15
23 Garrett Patrick Stockbridge 4 30:30 15:15
24 Gary Weeks Chelsea 37 30:37 15:19
25 Anthony Bassett Stockbridge 10 31:24 15:42
************ FEMALE OVERALL WINNER ************
PLACE NAME TOWN AGE time PACE
===== ====================== ================= === ======= =====
1 Mary Kay Hamby Ann Arbor 41 21:48 10:54
2 Connie McLean Westland 32 22:16 11:08
3 Pamela Davis-Kean Ann Arbor 32 22:46 11:23
4 Ayla De Troyer 9 22:50 11:25
5 Dina Blissick Chelsea 31 22:55 11:28
6 Glenna Porter Swartz Creek 45 23:00 11:30
7 Shelley Mepyans Garden City 34 23:06 11:33
8 Hillary Phillips Chelsea 8 23:06 11:33
9 Mary Ann Watson Ann Arbor 44 23:13 11:37
10 Maura Dalian Ann Arbor 39 23:30 11:45
11 Shannon Weeks Chelsea 13 23:30 11:45
12 Kristin Romelhardt Dexter 46 23:52 11:56
13 Marie Angelocci Chelsea 12 24:04 12:02
14 Kristin Angelocci Chelsea 6 24:05 12:03
15 Georgia J Hull Jackson 52 24:20 12:10
16 Linda Levely Royal Oak 46 24:38 12:19
17 Donna Williams Ann Arbor 46 24:38 12:19
18 Karen Frayer Plymouth 32 24:46 12:23
19 Nancy Jennings Pinckney 41 25:02 12:31
20 Phyllis Jennings Pinckney 71 25:11 12:36
21 Jo Lynn De Buysscher Belleville 50 25:37 12:49
22 Stephanie Becker Chelsea 7 25:46 12:53
23 Amanda Becker Chelsea 12 25:46 12:53
24 Ann Steinhauer Ann Arbor 30 25:54 12:57
25 Karen Bassett Stockbridge 36 25:55 12:58
26 Barb Johnstone 43 25:56 12:58
27 Judy Phillips Chelsea 35 26:00 13:00
28 Jerri Cole Grass Lake 41 26:05 13:03
29 Debbie Peck Chelsea 46 26:05 13:03
30 Jessie Cole Grass Lake 14 26:06 13:03
31 Blake Angelocci Chelsea 9 26:06 13:03
32 Jessie Sahakian Manchester 4 26:12 13:06
33 Valerie Scriven Chelsea 50 26:15 13:08
34 Judy Sahakian Manchester 1 26:21 13:11
35 Kate Howlin Chelsea 9 26:24 13:12
36 Pam Byrnes Chelsea 50 26:28 13:14
37 Aimee Van Heest Jackson 25 26:30 13:15
38 Carol Jones Ypsilant 31 26:32 13:16
39 Yvonne Jones Ann Arbor 61 26:32 13:16
40 Ronda Woods Swartz Creek 37 26:40 13:20
41 Angela Chabot Dexter 14 26:51 13:26
42 Mary Law Veasman Ann Arbor 59 26:57 13:29
43 Carol Benedict Chelsea 57 27:26 13:43
44 Anne Garman Chelsea 43 28:34 14:17
45 Deana Grabel Ypsilant 23 28:39 14:20
46 Jennifer Noble Ann Arbor 14 28:43 14:22
47 Caitlin Sewell Manchester 12 28:47 14:24
48 Cynthia Sewell Manchester 41 28:49 14:25
49 Ashleigh Sewell Manchester 15 28:50 14:25
50 Mary Ann Barthiaume Jackson 54 29:18 14:39
51 Barbara Byrum Pleasant Lake 55 29:21 14:41
52 Nancy Mariatti Horton 44 29:24 14:42
53 Ann Burton Hamburg 41 29:27 14:44
54 Shelly Drouillard Farmington Hills 33 29:27 14:44
55 Elaine Pastor Chelsea 59 29:46 14:53
56 Louise Barner Chelsea 50 29:56 14:58
57 Beth Barner Chelsea 20 29:56 14:58
58 Pat Menzie Hamburg 50 30:09 15:05
59 Donna Feldt Hamburg 45 30:11 15:06
60 Sandra Kortesoja Ann Arbor 47 30:11 15:06
61 Barbara Perles Ann Arbor 51 30:11 15:06
62 Janice Van Heest Jackson 44 30:12 15:06
63 Stephanie Van Heest Jackson 20 30:14 15:07
64 Marta Doyle Saline 46 30:29 15:15
65 Vivian Lynn Ypsilant 57 30:31 15:16
66 Joyce Noble Ann Arbor 49 30:36 15:18
67 Ashley Bassett Stockbridge 8 31:23 15:42
68 Heather Patrick Stockbridge 9 32:05 16:03
69 Bonnie Patrick Stockbridge 57 32:07 16:04
70 Bertha Phelan Grass Lake 55 32:07 16:04
71 Sally Aguilar Albion 43 32:46 16:23
72 Bernice Geragusian Ann Arbor 54 32:47 16:24
73 Andrea Hemry Jackson 29 32:47 16:24
74 Darlene Regis 32 32:50 16:25
75 Monica Hanna Chelsea 63 33:11 16:36
76 Theresa McDonald Chelsea 42 33:12 16:36
77 Deb Schilz Dexter 46 33:49 16:55
78 Elizabeth Wireman Jackson 33 33:49 16:55
79 Barbara Wright Jackson 39 34:38 17:19
80 Martha De Bozy Jackson 41 34:39 17:20
81 Becky Campa Perry 7 35:06 17:33
82 Janis Proctor Chelsea 37 35:27 17:44
83 Susan Schafer Perry 36 35:27 17:44
84 Betty Schafer Chelsea 67 35:27 17:44
85 Brittany Miller Manchester 12 58:02 29:01
86 Joyce Henley Jackson 1:07:22 33:41
87 Michele Weber Grass Lake 37 1:07:23 33:42

CHELSEA, MICHIGAN